• Join FlightAware (Why Join?)
  • Login
  • US Flag 
10:13PM EDT


 

Airport Tracker/Info


-or-


 

Live Flight TrackerFlight Track Log ✈ UAL4305 ✈ 08-Apr-2013 ✈ KIAH - KTYS

Flight Track Log - Related Links

Times and Time Zones

All times are in EDT time to prevent confusion due to time zone crossing. See the UAL4305 flight status page for this flight to view local times or setup timezone preferences in your user account.

Time Position Orientation Groundspeed Altitude Reporting Facility
EDT Latitude Longitude Course Direction KTS MPH feet Rate Location/Type
02:15PM 29.9639 -95.3433 105° East 125 144 700  Level Houston Center
02:16PM 29.9506 -95.2867 105° East 192 221 2,600 1,680 Climbing Houston Center
02:16PM 29.9447 -95.2492 100° East 251 289 3,300 1,440 Climbing Houston Center
02:17PM 29.9358 -95.1925 100° East 239 275 4,100 660 Climbing Houston Center
02:17PM 29.9328 -95.1661 98° East 262 302 4,000  Descending Houston Center
02:18PM 29.9256 -95.1097 98° East 257 296 4,100 780 Climbing Houston Center
02:19PM 29.9322 -95.0231 85° East 275 316 5,400 1,740 Climbing Houston Center
02:19PM 29.9331 -94.9903 88° East 286 329 6,400 2,400 Climbing Houston Center
02:20PM 29.9403 -94.9303 82° East 288 331 7,900 2,040 Climbing Houston Center
02:21PM 29.9494 -94.8347 84° East 297 342 10,200 1,380 Climbing Houston Center
02:22PM 29.9597 -94.7294 84° East 327 376 10,800 1,140 Climbing Houston Center
02:23PM 29.9719 -94.5878 84° East 367 422 12,600 1,500 Climbing Houston Center
02:24PM 29.9811 -94.4783 84° East 374 430 13,900 1,260 Climbing Houston Center
02:25PM 29.9919 -94.3553 84° East 384 442 15,300 1,500 Climbing Houston Center
02:26PM 30.0092 -94.2053 82° East 394 453 17,000 1,500 Climbing Houston Center
02:27PM 30.0244 -94.0783 82° East 402 463 18,500 1,500 Climbing Houston Center
02:28PM 30.0397 -93.9517 82° East 400 460 20,200 1,620 Climbing Houston Center
02:29PM 30.0553 -93.8264 82° East 398 458 21,900 1,620 Climbing Houston Center
02:30PM 30.0711 -93.7019 82° East 397 457 23,600 1,620 Climbing Houston Center
02:31PM 30.0881 -93.5531 82° East 395 455 25,300 1,440 Climbing Houston Center
02:32PM 30.1028 -93.4267 82° East 403 464 26,600 1,500 Climbing Houston Center
02:33PM 30.1169 -93.3014 83° East 401 461 28,400 1,500 Climbing Houston Center
02:34PM 30.1317 -93.1778 82° East 394 453 29,800 1,260 Climbing Houston Center
02:35PM 30.1650 -93.0614 72° East 395 455 31,100 1,320 Climbing Houston Center
02:36PM 30.2331 -92.9356 58° Northeast 390 449 32,600 1,140 Climbing Houston Center
02:37PM 30.2906 -92.8297 58° Northeast 389 448 33,500 960 Climbing Houston Center
02:39PM 30.3486 -92.7231 58° Northeast 393 452 34,600 720 Climbing Houston Center
02:40PM 30.4067 -92.6178 57° Northeast 391 450 35,000 180 Climbing Houston Center
02:41PM 30.4669 -92.5036 58° Northeast 408 470 35,000  Level Houston Center
02:42PM 30.5358 -92.3789 57° Northeast 431 496 35,000  Level Houston Center
02:43PM 30.6178 -92.2261 58° Northeast 465 535 35,000  Level Houston Center
02:44PM 30.6881 -92.0961 58° Northeast 478 550 35,000  Level Houston Center
02:45PM 30.7600 -91.9628 58° Northeast 487 560 35,000  Level Houston Center
02:46PM 30.8314 -91.8272 58° Northeast 494 568 35,000  Level Houston Center
02:47PM 30.9047 -91.6925 58° Northeast 496 571 35,000  Level Houston Center
02:48PM 30.9908 -91.5300 58° Northeast 496 571 35,000  Level Houston Center
02:49PM 31.0578 -91.4006 59° Northeast 492 566 35,000  Level Houston Center
02:50PM 31.1303 -91.2633 58° Northeast 495 570 35,000  Level Houston Center
02:51PM 31.2014 -91.1272 59° Northeast 493 567 35,000  Level Houston Center
02:52PM 31.2722 -90.9908 59° Northeast 490 564 35,000  Level Houston Center
02:53PM 31.3589 -90.8253 58° Northeast 495 570 35,000  Level Houston Center
02:54PM 31.4300 -90.6881 59° Northeast 493 567 35,000  Level Houston Center
02:55PM 31.5003 -90.5497 59° Northeast 494 568 35,000  Level Houston Center
02:56PM 31.5719 -90.4117 59° Northeast 494 568 35,000  Level Houston Center
02:57PM 31.6428 -90.2731 59° Northeast 494 568 35,000  Level Houston Center
02:58PM 31.7131 -90.1344 59° Northeast 495 570 35,000  Level Houston Center
02:58PM 31.7406 -90.0764 61° Northeast 488 562 35,000  Level Memphis Center
02:59PM 31.8047 -89.9492 59° Northeast 497 572 35,000  Level Memphis Center
03:00PM 31.8753 -89.8094 59° Northeast 497 572 35,000  Level Memphis Center
03:01PM 31.9478 -89.6694 59° Northeast 492 566 35,000  Level Memphis Center
03:02PM 32.0200 -89.5317 58° Northeast 492 566 35,000  Level Memphis Center
03:03PM 32.0900 -89.3911 60° Northeast 492 566 35,000  Level Memphis Center
03:04PM 32.1575 -89.2506 60° Northeast 492 566 35,000  Level Memphis Center
03:05PM 32.2294 -89.1097 59° Northeast 497 572 35,000  Level Memphis Center
03:06PM 32.2989 -88.9686 60° Northeast 497 572 35,000  Level Memphis Center
03:07PM 32.3681 -88.8275 60° Northeast 492 566 35,000  Level Memphis Center
03:08PM 32.4519 -88.7006 52° Northeast 486 559 35,000  Level Memphis Center
03:09PM 32.5400 -88.5731 51° Northeast 486 559 35,000  Level Memphis Center
03:10PM 32.6281 -88.4481 50° Northeast 486 559 35,000  Level Memphis Center
03:11PM 32.7239 -88.3103 50° Northeast 491 565 35,000  Level Memphis Center
03:13PM 32.8786 -88.0728 52° Northeast 514 592 35,000  Level Atlanta Center
03:14PM 32.9772 -87.9339 50° Northeast 506 582 35,000  Level Atlanta Center
03:15PM 33.0517 -87.8206 52° Northeast 491 565 35,000  Level Atlanta Center
03:16PM 33.1389 -87.6931 51° Northeast 491 565 35,000  Level Atlanta Center
03:17PM 33.2242 -87.5650 51° Northeast 491 565 35,000  Level Atlanta Center
03:18PM 33.3089 -87.4392 51° Northeast 491 565 35,000  Level Atlanta Center
03:19PM 33.3939 -87.3131 51° Northeast 491 565 35,000  Level Atlanta Center
03:20PM 33.4786 -87.1869 51° Northeast 485 558 35,000  Level Atlanta Center
03:21PM 33.5653 -87.0578 51° Northeast 485 558 35,000  Level Atlanta Center
03:22PM 33.6478 -86.9286 52° Northeast 485 558 35,000  Level Atlanta Center
03:23PM 33.7381 -86.8067 48° Northeast 485 558 35,000  Level Atlanta Center
03:24PM 33.8306 -86.6844 48° Northeast 485 558 35,000  Level Atlanta Center
03:25PM 33.9228 -86.5622 48° Northeast 485 558 35,000  Level Atlanta Center
03:26PM 34.0131 -86.4397 48° Northeast 485 558 35,000  Level Atlanta Center
03:27PM 34.1050 -86.3192 47° Northeast 479 551 35,000  Level Atlanta Center
03:28PM 34.1969 -86.1986 47° Northeast 479 551 35,000 -300 Level Atlanta Center
03:29PM 34.2953 -86.0603 49° Northeast 484 557 34,500 -540 Descending Atlanta Center
03:30PM 34.3847 -85.9442 47° Northeast 476 548 34,000 -300 Descending Atlanta Center
03:31PM 34.4700 -85.8278 48° Northeast 470 541 34,000 -540 Level Atlanta Center
03:32PM 34.5550 -85.7136 48° Northeast 457 526 33,000 -1,260 Descending Atlanta Center
03:33PM 34.6444 -85.5892 49° Northeast 468 539 31,500 -1,500 Descending Atlanta Center
03:34PM 34.7253 -85.4542 54° Northeast 482 555 30,000 -1,560 Descending Atlanta Center
03:35PM 34.7894 -85.3058 62° Northeast 489 563 28,400 -1,500 Descending Atlanta Center
03:36PM 34.8556 -85.1575 61° Northeast 495 570 27,100 -720 Descending Atlanta Center
03:37PM 34.9175 -85.0139 62° Northeast 485 558 27,000 -540 Descending Atlanta Center
03:38PM 34.9789 -84.8703 62° Northeast 479 551 26,100 -1,260 Descending Atlanta Center
03:39PM 35.0528 -84.7289 57° Northeast 479 551 24,500 -1,740 Descending Atlanta Center
03:40PM 35.1514 -84.6306 39° Northeast 468 539 22,700 -2,100 Descending Atlanta Center
03:41PM 35.2458 -84.5397 38° Northeast 442 509 20,300 -2,880 Descending Atlanta Center
03:42PM 35.3358 -84.4539 38° Northeast 426 490 17,000 -3,480 Descending Atlanta Center
03:43PM 35.4258 -84.3675 38° Northeast 414 476 13,500 -3,000 Descending Atlanta Center
03:44PM 35.5156 -84.2861 36° Northeast 409 471 11,000 -1,260 Descending Atlanta Center
03:45PM 35.5950 -84.2047 40° Northeast 396 456 11,000  Level Atlanta Center
03:46PM 35.6806 -84.1231 38° Northeast 384 442 11,000 -420 Level Atlanta Center
03:47PM 35.7619 -84.0439 38° Northeast 379 436 10,200 -960 Descending Atlanta Center
03:48PM 35.8267 -83.9747 41° Northeast 349 402 9,100 -1,560 Descending Atlanta Center
03:49PM 35.8914 -83.9492 18° North 263 303 7,100 -1,200 Descending Atlanta Center
03:50PM 35.9561 -83.9617 351° North 239 275 6,700 -420 Descending Atlanta Center
03:52PM 35.8255 -83.9908 206° Southwest  Level Estimated
03:59PM 35.8110 -83.9940 206° Southwest  Level Estimated
04:00PM 35.8110 -83.9940 206° Southwest  Level Estimated